This is the latest recevied weather packets stored in our database for station/object WB9TLH-11. If no packets are shown the sender has not sent any weather packets the latest 10 day(s).
| Time | Temp. | Humidity | Pressure | Rain* | Wind** | Luminosity | Snow |
|---|---|---|---|---|---|---|---|
| 1777972852 | 13.33° C | 88% | 1007.9 hPa | 2.54 mm | - | - | - |
| 1777972552 | 13.33° C | 88% | 1008.1 hPa | 3.05 mm | - | - | - |
| 1777972252 | 13.33° C | 87% | 1008.3 hPa | 3.3 mm | - | - | - |
| 1777971952 | 13.33° C | 87% | 1008.5 hPa | 3.81 mm | - | - | - |
| 1777971652 | 13.33° C | 87% | 1008.6 hPa | 4.06 mm | - | - | - |
| 1777971352 | 13.33° C | 86% | 1008.7 hPa | 4.32 mm | - | - | - |
| 1777971052 | 13.33° C | 86% | 1008.7 hPa | 4.57 mm | - | - | - |
| 1777970752 | 13.33° C | 85% | 1008.8 hPa | 4.57 mm | - | - | - |
| 1777970452 | 13.33° C | 85% | 1008.8 hPa | 4.57 mm | - | - | - |
| 1777970152 | 13.33° C | 84% | 1009 hPa | 5.59 mm | - | - | - |
| 1777969852 | 13.89° C | 83% | 1008.9 hPa | 5.59 mm | - | - | - |
| 1777969552 | 13.89° C | 83% | 1009.1 hPa | 5.08 mm | - | - | - |
| 1777969252 | 13.89° C | 83% | 1009.2 hPa | 4.83 mm | - | - | - |
| 1777968952 | 13.89° C | 82% | 1009.4 hPa | 4.32 mm | - | - | - |
| 1777968652 | 13.89° C | 81% | 1009.3 hPa | 4.06 mm | - | - | - |
| 1777968353 | 13.89° C | 81% | 1009.2 hPa | 3.56 mm | - | - | - |
| 1777968052 | 13.89° C | 79% | 1008.9 hPa | 3.3 mm | - | - | - |
| 1777967919 | 14.44° C | 78% | 1008.7 hPa | 2.79 mm | - | - | - |
| 1777967753 | 14.44° C | 78% | 1008.7 hPa | 2.79 mm | - | - | - |
| 1777967453 | 14.44° C | 77% | 1008.8 hPa | 2.54 mm | - | - | - |
| 1777967153 | 14.44° C | 75% | 1008.7 hPa | 2.29 mm | - | - | - |
| 1777966853 | 15° C | 73% | 1008 hPa | 2.03 mm | - | - | - |
| 1777966553 | 16.67° C | 68% | 1007.9 hPa | 0.51 mm | - | - | - |
| 1777966252 | 18.33° C | 62% | 1007.4 hPa | 0 mm | - | - | - |
| 1777965953 | 19.44° C | 55% | 1007.2 hPa | 0 mm | - | - | - |
* Rain latest hour (hover to see other rain measurements)
** Current wind speed in m/s (hover to see current wind gust speed)